Time;durP1;ratioP1;P1;durP2;ratioP2;P2;SDS_P1;SDS_P2;PMS_P1;PMS_P2;Temp;Humidity;BMP_temperature;BMP_pressure;BME280_temperature;BME280_humidity;BME280_pressure;Samples;Min_cycle;Max_cycle;Signal;HPM_P1;HPM_P2
2021/08/09 00:01:03;;;;;;;2.73;2.53;;;17.40;99.90;;;;;;4937266;28;20195;-70
2021/08/09 00:03:30;;;;;;;3.73;2.73;;;17.40;99.90;;;;;;4934367;28;20243;-70
2021/08/09 00:05:56;;;;;;;3.20;2.87;;;17.40;99.90;;;;;;4935406;29;20529;-70
2021/08/09 00:08:21;;;;;;;3.13;2.33;;;17.40;99.90;;;;;;4936594;29;21287;-71
2021/08/09 00:10:47;;;;;;;2.60;2.40;;;17.30;99.90;;;;;;4937908;28;20239;-70
2021/08/09 00:13:16;;;;;;;2.73;2.27;;;17.40;99.90;;;;;;4934100;28;20231;-70
2021/08/09 00:15:44;;;;;;;2.90;2.37;;;17.40;99.90;;;;;;4935287;28;20246;-70
2021/08/09 00:18:09;;;;;;;2.10;1.87;;;17.40;99.90;;;;;;4934768;28;20720;-71
2021/08/09 00:20:35;;;;;;;3.70;2.43;;;17.40;99.90;;;;;;4935792;28;20718;-70
2021/08/09 00:23:03;;;;;;;4.07;2.67;;;17.40;99.90;;;;;;4930087;28;20223;-70
2021/08/09 00:25:28;;;;;;;3.07;2.50;;;17.40;99.90;;;;;;4935185;29;20208;-70
2021/08/09 00:27:58;;;;;;;2.80;2.53;;;17.30;99.90;;;;;;4934898;29;21252;-70
2021/08/09 00:30:26;;;;;;;3.23;2.70;;;17.20;99.90;;;;;;4939971;28;20183;-71
2021/08/09 00:32:54;;;;;;;3.97;2.80;;;17.20;99.90;;;;;;4929366;28;20645;-71
2021/08/09 00:35:20;;;;;;;3.47;2.77;;;17.20;99.90;;;;;;4934538;28;20623;-70
2021/08/09 00:37:48;;;;;;;2.73;2.43;;;17.20;99.90;;;;;;4930594;28;20615;-72
2021/08/09 00:40:16;;;;;;;3.20;2.90;;;17.30;99.90;;;;;;4935557;28;20195;-71
2021/08/09 00:42:42;;;;;;;4.50;2.73;;;17.20;99.90;;;;;;4934991;28;20642;-71
2021/08/09 00:45:08;;;;;;;3.30;2.40;;;17.20;99.90;;;;;;4932276;29;20655;-72
2021/08/09 00:47:36;;;;;;;4.37;2.57;;;17.10;99.90;;;;;;4934737;28;20214;-72
2021/08/09 00:50:02;;;;;;;3.47;2.83;;;17.20;99.90;;;;;;4936764;28;21123;-71
2021/08/09 00:52:27;;;;;;;3.20;2.40;;;17.10;99.90;;;;;;4934072;28;21503;-72
2021/08/09 00:54:56;;;;;;;2.70;2.50;;;17.10;99.90;;;;;;4933617;29;20640;-71
2021/08/09 00:57:23;;;;;;;2.77;2.57;;;17.20;99.90;;;;;;4930239;28;20303;-72
2021/08/09 00:59:54;;;;;;;3.30;2.40;;;17.10;99.90;;;;;;4933744;28;20654;-71
2021/08/09 01:02:20;;;;;;;5.93;2.20;;;17.10;99.90;;;;;;4933449;28;21503;-72
2021/08/09 01:04:48;;;;;;;3.13;2.50;;;17.10;99.90;;;;;;4931992;29;20752;-72
2021/08/09 01:07:13;;;;;;;6.40;2.57;;;17.10;99.90;;;;;;4932795;28;20215;-72
2021/08/09 01:09:53;;;;;;;2.80;2.60;;;17.10;99.90;;;;;;4933555;28;20655;-71
2021/08/09 01:12:54;;;;;;;2.93;2.73;;;17.10;99.90;;;;;;4926125;28;20289;-72
2021/08/09 01:15:26;;;;;;;2.83;2.63;;;17.10;99.90;;;;;;4934703;29;20748;-71
2021/08/09 01:17:54;;;;;;;3.67;2.30;;;17.10;99.90;;;;;;4932402;28;21183;-72
2021/08/09 01:20:54;;;;;;;3.23;2.90;;;17.10;99.90;;;;;;4928020;29;20623;-71
2021/08/09 01:23:34;;;;;;;4.63;2.63;;;17.10;99.90;;;;;;4933777;28;21269;-71
2021/08/09 01:26:21;;;;;;;3.10;2.63;;;17.10;99.90;;;;;;4932238;28;20610;-71
2021/08/09 01:28:50;;;;;;;4.83;3.10;;;17.10;99.90;;;;;;4930455;28;20662;-71
2021/08/09 01:31:16;;;;;;;4.03;2.90;;;17.10;99.90;;;;;;4931104;28;20634;-72
2021/08/09 01:33:46;;;;;;;3.00;2.70;;;17.00;99.90;;;;;;4931870;29;20611;-71
2021/08/09 01:36:15;;;;;;;5.70;2.40;;;17.00;99.90;;;;;;4935745;29;20690;-71
2021/08/09 01:38:43;;;;;;;5.70;2.57;;;17.00;99.90;;;;;;4933353;28;20659;-71
2021/08/09 01:41:09;;;;;;;3.80;3.00;;;17.00;99.90;;;;;;4927967;28;21142;-71
2021/08/09 01:43:36;;;;;;;3.13;2.73;;;17.10;99.90;;;;;;4930965;28;20766;-71
2021/08/09 01:46:06;;;;;;;2.90;2.40;;;17.20;99.90;;;;;;4932449;28;20702;-71
2021/08/09 01:48:31;;;;;;;2.90;2.30;;;17.20;99.90;;;;;;4936861;29;20657;-71
2021/08/09 01:50:58;;;;;;;4.07;3.07;;;17.20;99.90;;;;;;4933997;29;21173;-71
2021/08/09 01:53:24;;;;;;;3.50;2.43;;;17.20;99.90;;;;;;4929154;28;20219;-71
2021/08/09 01:55:54;;;;;;;2.70;2.50;;;17.30;99.90;;;;;;4944167;28;20627;-71
2021/08/09 01:58:19;;;;;;;3.37;2.63;;;17.20;99.90;;;;;;4940001;28;20749;-72
2021/08/09 02:00:48;;;;;;;2.23;2.07;;;17.20;99.90;;;;;;4933336;28;20623;-71
2021/08/09 02:03:13;;;;;;;3.40;2.50;;;17.20;99.90;;;;;;4933018;28;20392;-71
2021/08/09 02:05:39;;;;;;;3.40;2.80;;;17.30;99.90;;;;;;4931759;28;20659;-71
2021/08/09 02:08:05;;;;;;;3.07;2.70;;;17.20;99.90;;;;;;4931319;29;20214;-71
2021/08/09 02:10:31;;;;;;;3.67;2.37;;;17.20;99.90;;;;;;4932906;28;20275;-71
2021/08/09 02:13:19;;;;;;;5.23;2.77;;;17.10;99.90;;;;;;4932746;28;20652;-71
2021/08/09 02:15:53;;;;;;;3.37;2.50;;;17.10;99.90;;;;;;4930959;28;21139;-71
2021/08/09 02:18:39;;;;;;;4.37;2.23;;;17.10;99.90;;;;;;4932163;29;20738;-71
2021/08/09 02:21:10;;;;;;;5.63;3.70;;;17.10;99.90;;;;;;4931005;29;20694;-71
2021/08/09 02:23:45;;;;;;;3.00;2.17;;;17.20;99.90;;;;;;4932952;28;20659;-71
2021/08/09 02:26:11;;;;;;;4.10;2.47;;;17.20;99.90;;;;;;4927970;28;20618;-71
2021/08/09 02:28:44;;;;;;;2.73;2.50;;;17.10;99.90;;;;;;4935299;28;20674;-71
2021/08/09 02:31:11;;;;;;;3.17;2.70;;;17.10;99.90;;;;;;4937832;29;20730;-71
2021/08/09 02:33:39;;;;;;;3.47;2.80;;;17.10;99.90;;;;;;4930843;29;21156;-71
2021/08/09 02:36:08;;;;;;;3.53;2.77;;;17.20;99.90;;;;;;4933032;29;20623;-71
2021/08/09 02:38:34;;;;;;;4.20;2.90;;;17.10;99.90;;;;;;4931494;28;21010;-71
2021/08/09 02:41:01;;;;;;;3.30;2.57;;;17.20;99.90;;;;;;4934632;29;20620;-71
2021/08/09 02:43:28;;;;;;;4.20;3.47;;;17.20;99.90;;;;;;4925552;28;20401;-71
2021/08/09 02:45:56;;;;;;;6.87;2.93;;;17.20;99.90;;;;;;4933548;28;20956;-71
2021/08/09 02:48:25;;;;;;;3.50;3.27;;;17.20;99.90;;;;;;4931614;28;20750;-71
2021/08/09 02:50:50;;;;;;;3.20;2.90;;;17.20;99.90;;;;;;4935358;29;20634;-71
2021/08/09 02:53:21;;;;;;;3.17;2.87;;;17.10;99.90;;;;;;4930406;28;20624;-71
2021/08/09 02:55:57;;;;;;;5.63;3.03;;;17.10;99.90;;;;;;4927956;29;20259;-71
2021/08/09 02:58:25;;;;;;;4.40;2.63;;;17.10;99.90;;;;;;4930554;29;20651;-71
2021/08/09 03:00:54;;;;;;;3.20;2.90;;;17.10;99.90;;;;;;4935355;29;20611;-71
2021/08/09 03:03:29;;;;;;;4.70;2.93;;;17.20;99.90;;;;;;4937316;28;20690;-71
2021/08/09 03:06:04;;;;;;;5.17;3.67;;;17.10;99.90;;;;;;4930504;28;20630;-71
2021/08/09 03:08:30;;;;;;;3.23;2.90;;;17.20;99.90;;;;;;4927572;28;20681;-71
2021/08/09 03:10:58;;;;;;;3.97;3.30;;;17.20;99.90;;;;;;4935729;28;20646;-71
2021/08/09 03:13:27;;;;;;;4.90;2.90;;;17.10;99.90;;;;;;4931511;28;20973;-71
2021/08/09 03:16:11;;;;;;;3.40;2.73;;;17.10;99.90;;;;;;4934985;28;20658;-71
2021/08/09 03:18:39;;;;;;;5.87;3.20;;;17.10;99.90;;;;;;4935357;28;20733;-71
2021/08/09 03:21:08;;;;;;;3.70;3.20;;;17.10;99.90;;;;;;4943207;29;21192;-71
2021/08/09 03:23:34;;;;;;;3.20;2.93;;;17.10;99.90;;;;;;4937027;28;20636;-71
2021/08/09 03:26:02;;;;;;;4.97;3.27;;;17.00;99.90;;;;;;4937733;29;20694;-71
2021/08/09 03:28:30;;;;;;;4.27;3.00;;;16.90;99.90;;;;;;4938587;28;21042;-71
2021/08/09 03:30:56;;;;;;;3.53;2.77;;;16.90;99.90;;;;;;4932758;29;20642;-72
2021/08/09 03:33:21;;;;;;;3.60;3.27;;;16.80;99.90;;;;;;4932071;28;20635;-71
2021/08/09 03:35:49;;;;;;;5.93;3.10;;;16.80;99.90;;;;;;4938508;29;20854;-71
2021/08/09 03:38:17;;;;;;;5.20;3.60;;;16.70;99.90;;;;;;4937635;28;20267;-71
2021/08/09 03:40:43;;;;;;;4.60;2.93;;;16.80;99.90;;;;;;4938674;29;20718;-71
2021/08/09 03:43:08;;;;;;;4.27;3.20;;;16.80;99.90;;;;;;4934388;28;20762;-71
2021/08/09 03:45:38;;;;;;;8.53;3.20;;;16.80;99.90;;;;;;4930895;29;20743;-71
2021/08/09 03:48:06;;;;;;;4.30;3.67;;;16.80;99.90;;;;;;4933286;28;20227;-71
2021/08/09 03:50:32;;;;;;;3.20;2.87;;;16.70;99.90;;;;;;4935593;29;20646;-71
2021/08/09 03:52:57;;;;;;;4.40;3.00;;;16.70;99.90;;;;;;4933557;28;21409;-71
2021/08/09 03:55:25;;;;;;;6.30;3.00;;;16.80;99.90;;;;;;4933083;29;20262;-71
2021/08/09 03:57:53;;;;;;;5.47;2.80;;;16.80;99.90;;;;;;4936899;28;20199;-71
2021/08/09 04:00:18;;;;;;;3.83;3.30;;;16.80;99.90;;;;;;4937597;29;20715;-71
2021/08/09 04:02:44;;;;;;;3.50;3.10;;;16.70;99.90;;;;;;4924038;28;20852;-71
2021/08/09 04:05:10;;;;;;;4.73;2.70;;;16.70;99.90;;;;;;4935018;28;21278;-71
2021/08/09 04:07:38;;;;;;;4.80;3.27;;;16.70;99.90;;;;;;4936076;29;20284;-71
2021/08/09 04:10:08;;;;;;;4.00;2.97;;;16.70;99.90;;;;;;4934884;29;20295;-71
2021/08/09 04:12:34;;;;;;;5.57;3.47;;;16.80;99.90;;;;;;4932291;28;20663;-71
2021/08/09 04:15:02;;;;;;;3.73;3.00;;;16.70;99.90;;;;;;4930946;29;20632;-71
2021/08/09 04:17:27;;;;;;;4.67;3.53;;;16.70;99.90;;;;;;4940959;29;20219;-72
2021/08/09 04:19:55;;;;;;;3.90;3.40;;;16.70;99.90;;;;;;4930713;28;20746;-71
2021/08/09 04:22:23;;;;;;;5.57;4.00;;;16.70;99.90;;;;;;4934003;28;20227;-71
2021/08/09 04:24:53;;;;;;;6.40;3.57;;;16.70;99.90;;;;;;4934453;28;20663;-71
2021/08/09 04:27:18;;;;;;;5.10;3.60;;;16.80;99.90;;;;;;4936541;29;20633;-71
2021/08/09 04:29:44;;;;;;;6.07;3.27;;;16.80;99.90;;;;;;4935624;28;20655;-72
2021/08/09 04:32:16;;;;;;;5.27;3.70;;;16.80;99.90;;;;;;4937676;28;20231;-71
2021/08/09 04:34:43;;;;;;;6.17;3.67;;;16.80;99.90;;;;;;4936923;28;20195;-71
2021/08/09 04:37:09;;;;;;;6.63;3.47;;;16.80;99.90;;;;;;4933399;28;20635;-72
2021/08/09 04:39:34;;;;;;;5.47;3.20;;;16.80;99.90;;;;;;4935671;29;20693;-71
2021/08/09 04:42:00;;;;;;;3.27;2.73;;;16.80;99.90;;;;;;4936890;28;20646;-71
2021/08/09 04:44:25;;;;;;;5.17;3.40;;;16.90;99.90;;;;;;4934636;28;20282;-71
2021/08/09 04:46:51;;;;;;;4.90;3.30;;;16.80;99.90;;;;;;4937305;28;20243;-71
2021/08/09 04:49:19;;;;;;;3.97;3.30;;;16.80;99.90;;;;;;4935092;28;20273;-71
2021/08/09 04:51:54;;;;;;;7.13;3.40;;;16.80;99.90;;;;;;4936212;28;20343;-71
2021/08/09 04:54:22;;;;;;;5.53;3.60;;;16.80;99.90;;;;;;4943059;28;20602;-72
2021/08/09 04:56:50;;;;;;;3.43;3.07;;;16.70;99.90;;;;;;4937859;29;20650;-71
2021/08/09 04:59:15;;;;;;;5.43;3.20;;;16.80;99.90;;;;;;4933384;28;21683;-71
2021/08/09 05:01:43;;;;;;;4.90;3.67;;;16.80;99.90;;;;;;4934073;28;20654;-71
2021/08/09 05:04:08;;;;;;;3.90;3.40;;;16.80;99.90;;;;;;4931087;29;20220;-71
2021/08/09 05:06:38;;;;;;;4.93;3.30;;;16.80;99.90;;;;;;4931405;29;20614;-71
2021/08/09 05:09:09;;;;;;;4.17;3.03;;;16.80;99.90;;;;;;4931653;28;20231;-71
2021/08/09 05:11:37;;;;;;;4.87;3.57;;;16.80;99.90;;;;;;4929343;28;20638;-72
2021/08/09 05:14:03;;;;;;;8.30;4.00;;;16.70;99.90;;;;;;4931546;29;20639;-72
2021/08/09 05:16:34;;;;;;;4.40;3.63;;;16.70;99.90;;;;;;4931086;28;20624;-72
2021/08/09 05:19:02;;;;;;;5.20;3.70;;;16.70;99.90;;;;;;4940379;28;22172;-72
2021/08/09 05:21:34;;;;;;;4.67;3.33;;;16.70;99.90;;;;;;4929949;28;20627;-72
2021/08/09 05:24:15;;;;;;;3.80;3.10;;;16.80;99.90;;;;;;4927859;28;20661;-72
2021/08/09 05:26:43;;;;;;;5.13;3.60;;;16.80;99.90;;;;;;4928763;28;20639;-73
2021/08/09 05:29:08;;;;;;;6.97;3.27;;;16.80;99.90;;;;;;4923441;28;20666;-72
2021/08/09 05:31:34;;;;;;;6.13;3.43;;;16.80;99.90;;;;;;4930628;28;20643;-72
2021/08/09 05:34:02;;;;;;;4.10;3.23;;;16.80;99.90;;;;;;4931175;28;20211;-72
2021/08/09 05:36:30;;;;;;;7.63;3.93;;;16.80;99.90;;;;;;4933339;28;20332;-72
2021/08/09 05:38:57;;;;;;;5.37;3.77;;;16.80;99.90;;;;;;4926704;28;20663;-71
2021/08/09 05:41:23;;;;;;;3.80;3.10;;;17.00;99.90;;;;;;4933050;28;20623;-72
2021/08/09 05:43:49;;;;;;;6.20;3.70;;;17.00;99.90;;;;;;4940657;29;20718;-73
2021/08/09 05:46:14;;;;;;;4.83;3.27;;;17.10;99.90;;;;;;4941077;29;20202;-73
2021/08/09 05:48:40;;;;;;;3.97;3.43;;;17.10;99.90;;;;;;4939470;28;20223;-73
2021/08/09 05:51:06;;;;;;;5.33;3.50;;;17.10;99.90;;;;;;4935087;28;20203;-73
2021/08/09 05:53:32;;;;;;;6.93;3.17;;;17.10;99.90;;;;;;4942277;28;20220;-73
2021/08/09 05:55:57;;;;;;;5.23;3.30;;;17.20;99.90;;;;;;4953909;29;20283;-73
2021/08/09 05:58:23;;;;;;;5.40;3.50;;;17.20;99.90;;;;;;4937657;28;20729;-73
2021/08/09 06:00:51;;;;;;;5.47;2.90;;;17.30;99.90;;;;;;4925452;28;20195;-73
2021/08/09 06:03:22;;;;;;;4.30;2.90;;;17.30;99.90;;;;;;4923052;28;20230;-73
2021/08/09 06:05:48;;;;;;;5.30;3.13;;;17.30;99.90;;;;;;4921817;28;20642;-73
2021/08/09 06:08:13;;;;;;;5.17;3.00;;;17.30;99.90;;;;;;4926811;28;21202;-73
2021/08/09 06:10:39;;;;;;;3.67;3.37;;;17.30;99.90;;;;;;4936310;28;20195;-73
2021/08/09 06:13:04;;;;;;;5.27;2.87;;;17.50;99.90;;;;;;4926129;28;20743;-73
2021/08/09 06:15:30;;;;;;;6.43;3.20;;;17.50;99.90;;;;;;4931840;28;20624;-73
2021/08/09 06:17:56;;;;;;;3.40;3.10;;;17.50;99.90;;;;;;4932252;28;20183;-73
2021/08/09 06:20:24;;;;;;;4.53;3.67;;;17.50;99.90;;;;;;4933197;28;20251;-73
2021/08/09 06:22:50;;;;;;;5.80;2.97;;;17.50;99.90;;;;;;4931912;28;20639;-73
2021/08/09 06:25:16;;;;;;;3.53;2.73;;;17.60;99.90;;;;;;4936574;28;20725;-73
2021/08/09 06:27:42;;;;;;;4.70;3.10;;;17.70;99.90;;;;;;4932128;28;20195;-73
2021/08/09 06:30:08;;;;;;;4.67;3.37;;;17.80;99.90;;;;;;4933217;28;20693;-73
2021/08/09 06:32:33;;;;;;;3.57;3.10;;;17.80;99.90;;;;;;4929493;28;20227;-73
2021/08/09 06:34:59;;;;;;;5.20;3.37;;;17.80;99.90;;;;;;4934381;29;20986;-73
2021/08/09 06:37:25;;;;;;;7.50;3.50;;;17.90;99.90;;;;;;4933368;29;20266;-72
2021/08/09 06:39:50;;;;;;;7.77;3.53;;;18.00;99.90;;;;;;4938207;28;20219;-73
2021/08/09 06:42:16;;;;;;;5.17;3.50;;;18.00;99.90;;;;;;4938499;28;20555;-72
2021/08/09 06:44:41;;;;;;;4.87;3.70;;;18.10;99.90;;;;;;4933139;29;20338;-72
2021/08/09 06:47:07;;;;;;;4.77;3.90;;;18.20;99.90;;;;;;4934968;29;20274;-72
2021/08/09 06:49:33;;;;;;;5.70;3.30;;;18.20;99.90;;;;;;4933539;28;20736;-73
2021/08/09 06:51:59;;;;;;;3.77;3.30;;;18.30;99.90;;;;;;4926944;28;20638;-72
2021/08/09 06:54:25;;;;;;;4.97;3.60;;;18.30;99.90;;;;;;4937270;28;20192;-72
2021/08/09 06:56:51;;;;;;;5.33;3.73;;;18.40;99.90;;;;;;4934857;29;20271;-72
2021/08/09 06:59:17;;;;;;;4.43;2.90;;;18.40;99.90;;;;;;4941381;28;20658;-72
2021/08/09 07:01:42;;;;;;;5.83;3.17;;;18.50;99.90;;;;;;4939279;28;20719;-73
2021/08/09 07:04:08;;;;;;;5.17;3.00;;;18.50;99.90;;;;;;4945623;29;20222;-73
2021/08/09 07:06:34;;;;;;;10.33;3.73;;;18.50;99.90;;;;;;4941000;29;20206;-73
2021/08/09 07:09:02;;;;;;;6.40;3.60;;;18.50;99.90;;;;;;5001255;23;20247;-75
2021/08/09 07:11:28;;;;;;;4.87;3.83;;;18.50;99.90;;;;;;4928913;28;20262;-75
2021/08/09 07:13:54;;;;;;;4.97;2.77;;;18.60;99.90;;;;;;4933109;29;21178;-75
2021/08/09 07:16:23;;;;;;;5.73;3.43;;;18.70;99.90;;;;;;4930992;28;20225;-74
2021/08/09 07:18:49;;;;;;;4.70;3.40;;;18.70;99.90;;;;;;4936715;28;20215;-75
2021/08/09 07:21:17;;;;;;;4.57;3.30;;;18.70;99.90;;;;;;4938363;28;20622;-74
2021/08/09 07:23:43;;;;;;;3.93;3.07;;;18.70;99.90;;;;;;4936052;28;20307;-75
2021/08/09 07:26:09;;;;;;;6.40;2.93;;;18.70;99.90;;;;;;4931921;28;20790;-76
2021/08/09 07:28:35;;;;;;;4.27;3.50;;;18.80;99.90;;;;;;4935254;29;20192;-75
2021/08/09 07:31:01;;;;;;;7.60;3.23;;;18.80;99.90;;;;;;4937432;28;20677;-73
2021/08/09 07:33:26;;;;;;;5.93;3.57;;;18.80;99.90;;;;;;4944841;28;20227;-73
2021/08/09 07:35:52;;;;;;;4.40;3.17;;;18.90;99.90;;;;;;4938099;29;20188;-73
2021/08/09 07:38:18;;;;;;;7.23;3.40;;;18.80;99.90;;;;;;4933988;28;20227;-73
2021/08/09 07:40:43;;;;;;;4.60;3.37;;;18.90;99.90;;;;;;4932031;29;21182;-73
2021/08/09 07:43:09;;;;;;;5.50;3.13;;;19.00;99.90;;;;;;4949535;28;20223;-72
2021/08/09 07:45:34;;;;;;;6.70;3.63;;;18.90;99.90;;;;;;4938122;29;20230;-72
2021/08/09 07:48:02;;;;;;;5.53;3.57;;;19.00;99.90;;;;;;4944632;29;20192;-72
2021/08/09 07:50:28;;;;;;;5.27;3.60;;;18.80;99.90;;;;;;4941613;28;20752;-72
2021/08/09 07:52:53;;;;;;;4.43;3.03;;;18.90;99.90;;;;;;4936251;28;20647;-72
2021/08/09 07:55:19;;;;;;;5.23;3.33;;;18.90;99.90;;;;;;4937748;29;20199;-72
2021/08/09 07:57:44;;;;;;;4.50;3.70;;;18.90;99.90;;;;;;4945525;29;20688;-72
2021/08/09 08:00:10;;;;;;;4.00;3.40;;;18.90;99.90;;;;;;4940850;28;20216;-74
2021/08/09 08:02:36;;;;;;;5.90;3.30;;;19.00;99.90;;;;;;4932954;28;20262;-73
2021/08/09 08:05:02;;;;;;;5.50;3.43;;;18.90;99.90;;;;;;4939794;28;20683;-73
2021/08/09 08:07:28;;;;;;;4.93;3.63;;;18.90;99.90;;;;;;4936694;29;20196;-72
2021/08/09 08:09:54;;;;;;;4.73;3.33;;;18.90;99.90;;;;;;4936700;28;20677;-73
2021/08/09 08:12:19;;;;;;;4.10;3.37;;;18.90;99.90;;;;;;4930972;28;20945;-72
2021/08/09 08:14:45;;;;;;;4.37;3.80;;;19.00;99.90;;;;;;4938469;28;20206;-73
2021/08/09 08:17:10;;;;;;;7.37;3.93;;;18.90;99.90;;;;;;4937566;28;20228;-73
2021/08/09 08:19:36;;;;;;;5.27;3.80;;;19.00;99.90;;;;;;4935711;28;20416;-74
2021/08/09 08:22:02;;;;;;;6.03;3.73;;;19.00;99.90;;;;;;4930603;28;20243;-73
2021/08/09 08:24:28;;;;;;;4.63;3.43;;;19.10;99.90;;;;;;4937863;28;20284;-73
2021/08/09 08:26:54;;;;;;;8.67;3.93;;;19.00;99.90;;;;;;4939807;29;20608;-73
2021/08/09 08:29:20;;;;;;;5.53;3.60;;;19.00;99.90;;;;;;4939092;28;20294;-73
2021/08/09 08:31:45;;;;;;;5.63;4.13;;;19.00;99.90;;;;;;4938196;28;20654;-72
2021/08/09 08:34:11;;;;;;;4.43;3.30;;;18.90;99.90;;;;;;4940664;29;20719;-73
2021/08/09 08:36:37;;;;;;;5.07;3.60;;;18.90;99.90;;;;;;4937470;29;20625;-73
2021/08/09 08:39:03;;;;;;;6.23;3.93;;;19.00;99.90;;;;;;4934117;28;20311;-73
2021/08/09 08:41:30;;;;;;;3.70;3.13;;;19.10;99.90;;;;;;4936940;28;20278;-73
2021/08/09 08:43:56;;;;;;;5.60;3.50;;;19.00;99.90;;;;;;4940446;28;20683;-73
2021/08/09 08:46:23;;;;;;;6.57;3.50;;;19.10;99.90;;;;;;4941199;29;20762;-72
2021/08/09 08:48:51;;;;;;;5.73;3.90;;;19.10;99.90;;;;;;4932839;28;20663;-73
2021/08/09 08:51:20;;;;;;;5.73;3.50;;;19.20;99.90;;;;;;4937952;28;20629;-73
2021/08/09 08:53:48;;;;;;;5.87;3.50;;;19.30;99.90;;;;;;4937896;29;21215;-72
2021/08/09 08:56:13;;;;;;;4.60;3.30;;;19.40;99.90;;;;;;4937925;29;20627;-73
2021/08/09 08:58:39;;;;;;;9.40;4.20;;;19.50;99.90;;;;;;4935795;28;20631;-73
2021/08/09 09:01:04;;;;;;;6.23;3.43;;;19.60;99.90;;;;;;4937646;29;20199;-73
2021/08/09 09:03:31;;;;;;;6.77;3.30;;;19.60;99.90;;;;;;4936589;28;20716;-73
2021/08/09 09:06:03;;;;;;;9.17;4.50;;;19.60;99.90;;;;;;4936526;29;20203;-73
2021/08/09 09:08:39;;;;;;;3.73;3.37;;;19.70;99.90;;;;;;4941733;28;20622;-73
2021/08/09 09:11:08;;;;;;;3.03;2.70;;;19.90;99.90;;;;;;4936199;28;20623;-73
2021/08/09 09:13:34;;;;;;;5.17;3.17;;;20.00;99.90;;;;;;4937492;28;20711;-72
2021/08/09 09:16:02;;;;;;;5.30;3.30;;;20.10;99.90;;;;;;4936529;28;20637;-72
2021/08/09 09:18:43;;;;;;;4.03;3.40;;;20.10;99.90;;;;;;4939131;29;20200;-73
2021/08/09 09:21:32;;;;;;;3.50;3.20;;;20.10;99.90;;;;;;4938948;29;21183;-73
2021/08/09 09:24:17;;;;;;;5.83;3.43;;;20.20;99.90;;;;;;4937139;29;20668;-73
2021/08/09 09:26:45;;;;;;;5.03;3.10;;;20.30;99.90;;;;;;4937034;28;20607;-73
2021/08/09 09:29:13;;;;;;;6.67;3.60;;;20.40;99.90;;;;;;4937919;28;20651;-73
2021/08/09 09:31:40;;;;;;;4.13;3.13;;;20.50;99.90;;;;;;4936368;28;21689;-72
2021/08/09 09:34:11;;;;;;;6.53;3.30;;;20.50;99.90;;;;;;4938690;29;21196;-72
2021/08/09 09:36:50;;;;;;;5.20;3.33;;;20.50;99.90;;;;;;4935772;28;20632;-73
2021/08/09 09:39:38;;;;;;;6.10;3.33;;;20.60;99.90;;;;;;4944650;28;20663;-73
2021/08/09 09:42:05;;;;;;;5.33;3.10;;;20.70;99.90;;;;;;4933407;28;20673;-72
2021/08/09 09:44:32;;;;;;;3.23;2.97;;;20.70;99.90;;;;;;4930135;28;20650;-73
2021/08/09 09:47:21;;;;;;;5.17;3.60;;;20.80;99.90;;;;;;4933864;29;20619;-73
2021/08/09 09:49:48;;;;;;;4.40;3.37;;;20.80;99.90;;;;;;4929686;29;20663;-73
2021/08/09 09:52:36;;;;;;;7.73;3.10;;;20.90;99.90;;;;;;4930780;28;21203;-73
2021/08/09 09:55:08;;;;;;;6.43;3.43;;;21.00;99.90;;;;;;4939925;29;20825;-73
2021/08/09 09:57:35;;;;;;;5.03;2.93;;;21.00;99.90;;;;;;4938036;28;20631;-73
2021/08/09 10:00:00;;;;;;;5.20;2.70;;;21.10;99.90;;;;;;4937810;28;20785;-73
2021/08/09 10:02:26;;;;;;;6.93;3.40;;;21.20;99.90;;;;;;4933784;28;20741;-73
2021/08/09 10:04:52;;;;;;;4.23;2.50;;;21.20;99.90;;;;;;4934358;28;20225;-73
2021/08/09 10:07:20;;;;;;;3.30;2.20;;;21.40;99.90;;;;;;4936860;29;20263;-73
2021/08/09 10:09:48;;;;;;;3.70;2.87;;;21.50;99.90;;;;;;4940297;28;20686;-73
2021/08/09 10:12:15;;;;;;;3.10;2.80;;;21.60;99.90;;;;;;4936423;28;20658;-73
2021/08/09 10:14:41;;;;;;;3.30;2.30;;;21.70;99.90;;;;;;4937144;28;20722;-72
2021/08/09 10:17:07;;;;;;;7.60;2.40;;;21.70;99.90;;;;;;4942991;28;20718;-72
2021/08/09 10:19:33;;;;;;;3.10;2.03;;;21.70;99.90;;;;;;4944245;28;20779;-73
2021/08/09 10:21:58;;;;;;;3.77;2.23;;;21.80;99.90;;;;;;4943072;28;20643;-72
2021/08/09 10:24:38;;;;;;;3.33;1.93;;;21.70;99.90;;;;;;4938322;28;20998;-73
2021/08/09 10:27:04;;;;;;;3.93;2.10;;;21.70;99.90;;;;;;4944350;28;20192;-72
2021/08/09 10:29:29;;;;;;;2.70;1.93;;;21.80;99.90;;;;;;4943622;28;20726;-72
2021/08/09 10:32:19;;;;;;;3.30;2.00;;;21.90;99.90;;;;;;4939947;28;20235;-73
2021/08/09 10:34:45;;;;;;;2.47;2.10;;;22.00;99.90;;;;;;4938551;28;20428;-74
2021/08/09 10:37:15;;;;;;;3.30;2.30;;;22.00;99.90;;;;;;4940889;29;20649;-73
2021/08/09 10:39:50;;;;;;;1.93;1.73;;;22.10;99.90;;;;;;4936932;28;20254;-72
2021/08/09 10:42:45;;;;;;;4.93;2.10;;;22.30;99.90;;;;;;4935924;28;20642;-72
2021/08/09 10:45:35;;;;;;;3.23;2.20;;;22.20;99.90;;;;;;4938467;29;20697;-72
2021/08/09 10:48:01;;;;;;;2.30;1.70;;;22.30;99.90;;;;;;4947717;29;21180;-73
2021/08/09 10:50:26;;;;;;;2.90;1.93;;;22.40;99.90;;;;;;4939347;28;20663;-72
2021/08/09 10:52:53;;;;;;;2.60;2.07;;;22.30;99.90;;;;;;4938880;28;20678;-73
2021/08/09 10:55:31;;;;;;;3.13;1.80;;;22.30;99.90;;;;;;4938933;29;20563;-73
2021/08/09 10:57:58;;;;;;;3.53;1.93;;;22.40;99.90;;;;;;4951316;29;20619;-72
2021/08/09 11:00:39;;;;;;;2.97;2.50;;;22.30;99.90;;;;;;4957031;28;20677;-73
2021/08/09 11:03:09;;;;;;;3.00;2.57;;;22.20;99.90;;;;;;4937379;28;20738;-72
2021/08/09 11:05:35;;;;;;;4.00;1.97;;;22.20;99.90;;;;;;4953052;28;21219;-71
2021/08/09 11:08:16;;;;;;;3.33;1.87;;;22.30;99.90;;;;;;4939666;29;20660;-72
2021/08/09 11:11:01;;;;;;;4.47;2.40;;;22.40;99.90;;;;;;4939313;28;20227;-71
2021/08/09 11:13:36;;;;;;;2.23;1.77;;;22.60;99.90;;;;;;4935732;28;20655;-70
2021/08/09 11:16:04;;;;;;;3.10;2.00;;;22.70;99.90;;;;;;4940418;28;21239;-74
2021/08/09 11:18:30;;;;;;;4.23;1.93;;;22.70;99.90;;;;;;4937927;28;20633;-72
2021/08/09 11:21:10;;;;;;;7.83;1.70;;;22.80;99.90;;;;;;4936585;29;20659;-71
2021/08/09 11:23:40;;;;;;;2.20;2.00;;;22.80;99.90;;;;;;4949622;28;20647;-73
2021/08/09 11:26:07;;;;;;;1.87;1.73;;;22.90;99.90;;;;;;4941021;29;20666;-72
2021/08/09 11:28:33;;;;;;;2.20;2.00;;;22.90;99.90;;;;;;4933010;28;20627;-72
2021/08/09 11:31:04;;;;;;;2.80;2.30;;;22.90;99.90;;;;;;4935155;29;20638;-73
2021/08/09 11:33:34;;;;;;;2.93;1.70;;;22.90;99.90;;;;;;4932429;28;20643;-73
2021/08/09 11:36:06;;;;;;;2.97;1.87;;;22.80;99.90;;;;;;4937979;29;20650;-73
2021/08/09 11:38:48;;;;;;;2.00;1.80;;;22.80;99.90;;;;;;4938683;28;20630;-73
2021/08/09 11:41:34;;;;;;;2.73;1.93;;;22.90;99.90;;;;;;4940441;28;20896;-74
2021/08/09 11:44:07;;;;;;;1.97;1.60;;;22.80;99.90;;;;;;4934717;29;21285;-73
2021/08/09 11:46:53;;;;;;;4.03;1.80;;;22.80;99.90;;;;;;4937804;29;23216;-73
2021/08/09 11:49:20;;;;;;;2.63;1.83;;;23.00;99.90;;;;;;4934327;28;20659;-73
2021/08/09 11:51:46;;;;;;;2.70;2.13;;;23.00;99.90;;;;;;4940917;28;20642;-73
2021/08/09 11:54:12;;;;;;;2.30;1.50;;;22.90;99.90;;;;;;4934495;28;21258;-73
2021/08/09 11:56:39;;;;;;;3.47;2.23;;;22.90;99.90;;;;;;4938913;29;20618;-74
2021/08/09 11:59:15;;;;;;;2.57;1.77;;;22.90;99.90;;;;;;4937202;28;20223;-74
2021/08/09 12:01:47;;;;;;;2.00;1.80;;;23.00;99.90;;;;;;4939057;28;20627;-74
2021/08/09 12:04:14;;;;;;;4.93;1.80;;;23.00;99.90;;;;;;4934075;29;20628;-74
2021/08/09 12:06:48;;;;;;;2.23;1.60;;;22.90;99.90;;;;;;4938134;29;20677;-74
2021/08/09 12:09:16;;;;;;;6.80;1.90;;;22.80;99.90;;;;;;4942532;28;20722;-74
2021/08/09 12:11:42;;;;;;;2.87;2.00;;;22.70;99.90;;;;;;4932768;28;20642;-74
2021/08/09 12:14:11;;;;;;;1.97;1.80;;;22.70;99.90;;;;;;4938399;28;20634;-74
2021/08/09 12:16:52;;;;;;;8.53;1.90;;;22.60;99.90;;;;;;4937909;28;20677;-74
2021/08/09 12:19:33;;;;;;;2.20;1.83;;;22.60;99.90;;;;;;4938476;28;20702;-74
2021/08/09 12:22:16;;;;;;;2.47;1.60;;;22.60;99.90;;;;;;4930658;28;20712;-74
2021/08/09 12:24:44;;;;;;;3.07;2.07;;;22.60;99.90;;;;;;4932694;28;20631;-75
2021/08/09 12:27:37;;;;;;;4.80;2.17;;;22.70;99.90;;;;;;4934442;28;20654;-74
2021/08/09 12:30:14;;;;;;;4.97;1.87;;;22.60;99.90;;;;;;4933071;28;20671;-74
2021/08/09 12:32:56;;;;;;;4.27;2.03;;;22.70;99.90;;;;;;4931763;28;20738;-74
2021/08/09 12:35:34;;;;;;;3.23;1.87;;;22.70;99.90;;;;;;4934838;28;21169;-73
2021/08/09 12:38:00;;;;;;;2.23;1.97;;;22.50;99.90;;;;;;4938548;29;20645;-73
2021/08/09 12:40:25;;;;;;;4.37;2.20;;;22.30;99.90;;;;;;4940250;28;20658;-73
2021/08/09 12:43:21;;;;;;;2.90;1.57;;;22.30;99.90;;;;;;4931738;28;20314;-74
2021/08/09 12:45:48;;;;;;;2.20;1.70;;;22.50;99.90;;;;;;4932010;28;20246;-74
2021/08/09 12:48:14;;;;;;;3.70;1.60;;;22.70;99.90;;;;;;4937616;29;20614;-74
2021/08/09 12:50:43;;;;;;;2.80;1.70;;;22.90;99.90;;;;;;4935302;28;21204;-74
2021/08/09 12:53:09;;;;;;;3.13;1.90;;;23.00;99.90;;;;;;4935897;28;20655;-74
2021/08/09 12:55:36;;;;;;;2.13;1.90;;;23.10;99.90;;;;;;4935549;28;20611;-74
2021/08/09 12:58:04;;;;;;;4.13;1.70;;;23.10;99.90;;;;;;4931952;28;20619;-74